createdAt,value
2023-02-07T00:13:36.523Z,50.10
2023-02-07T00:28:37.603Z,32.20
2023-02-07T00:43:38.680Z,35.90
2023-02-07T00:58:39.284Z,32.80
2023-02-07T01:13:39.904Z,39.60
2023-02-07T01:28:40.959Z,33.30
2023-02-07T01:43:41.635Z,41.20
2023-02-07T01:58:42.229Z,74.40
2023-02-07T02:13:42.902Z,159.50
2023-02-07T02:28:43.117Z,208.80
2023-02-07T02:43:43.756Z,276.00
2023-02-07T02:58:44.355Z,124.90
2023-02-07T03:13:45.450Z,60.40
2023-02-07T03:28:45.593Z,89.50
2023-02-07T03:43:46.703Z,95.00
2023-02-07T03:58:47.287Z,108.60
2023-02-07T04:13:47.547Z,97.70
2023-02-07T04:28:48.119Z,68.70
2023-02-07T04:43:48.846Z,48.90
2023-02-07T04:58:49.925Z,94.70
2023-02-07T05:13:50.566Z,54.60
2023-02-07T05:28:51.584Z,51.00
2023-02-07T05:43:51.801Z,48.10
2023-02-07T05:58:52.399Z,35.00
2023-02-07T06:13:53.110Z,28.70
2023-02-07T06:28:54.254Z,32.70
2023-02-07T06:43:55.338Z,36.30
2023-02-07T06:58:55.895Z,35.20
2023-02-07T07:13:56.561Z,42.70
2023-02-07T07:28:57.149Z,44.00
2023-02-07T07:43:58.191Z,73.30
2023-02-07T07:58:59.565Z,82.60
2023-02-07T08:14:02.027Z,87.30
2023-02-07T08:29:03.625Z,90.90
2023-02-07T08:44:04.259Z,98.60
2023-02-07T08:59:04.849Z,80.40
2023-02-07T09:14:05.488Z,63.90
2023-02-07T09:29:06.190Z,49.20
2023-02-07T09:44:07.068Z,47.60
2023-02-07T09:59:07.360Z,42.00
2023-02-07T10:14:07.982Z,39.90
2023-02-07T10:29:08.554Z,41.60
2023-02-07T10:44:09.158Z,35.90
2023-02-07T10:59:09.743Z,25.10
2023-02-07T11:14:10.353Z,25.20
2023-02-07T11:29:11.365Z,88.40
2023-02-07T11:44:11.537Z,38.40
2023-02-07T11:59:12.137Z,58.50
2023-02-07T12:14:13.198Z,164.10
2023-02-07T12:29:14.172Z,22.50
2023-02-07T12:44:14.961Z,28.90
2023-02-07T12:59:15.967Z,25.40
2023-02-07T13:14:17.198Z,24.00
2023-02-07T13:29:17.749Z,20.70
2023-02-07T13:44:18.363Z,27.70
2023-02-07T14:00:37.102Z,20.60
2023-02-07T14:15:37.892Z,18.60
2023-02-07T14:30:39.082Z,21.60
2023-02-07T14:45:39.941Z,20.00
2023-02-07T15:00:40.920Z,27.30
2023-02-07T15:15:42.122Z,22.40
2023-02-07T15:30:44.245Z,18.90
2023-02-07T15:45:44.552Z,19.80
2023-02-07T16:00:46.145Z,17.20
2023-02-07T16:15:46.759Z,23.80
2023-02-07T16:30:46.872Z,23.90
2023-02-07T16:45:47.888Z,19.90
2023-02-07T17:00:49.492Z,23.00
2023-02-07T17:15:49.694Z,33.80
2023-02-07T17:30:50.739Z,33.40
2023-02-07T17:45:50.903Z,31.40
2023-02-07T18:00:52.582Z,28.10
2023-02-07T18:15:53.363Z,34.90
2023-02-07T18:30:54.898Z,39.20
2023-02-07T18:45:56.377Z,48.80
2023-02-07T19:00:56.540Z,53.90
2023-02-07T19:15:57.907Z,49.80
2023-02-07T19:30:58.545Z,49.00
2023-02-07T19:45:59.057Z,52.50
2023-02-07T20:01:00.205Z,40.00
2023-02-07T20:16:01.090Z,50.60
2023-02-07T20:31:01.616Z,56.30
2023-02-07T20:46:02.688Z,50.30
2023-02-07T21:01:04.252Z,39.50
2023-02-07T21:16:05.394Z,44.10
2023-02-07T21:31:06.006Z,46.20
2023-02-07T21:46:07.497Z,56.80
2023-02-07T22:01:08.300Z,46.10
2023-02-07T22:16:08.875Z,52.00
2023-02-07T22:31:11.035Z,51.30
2023-02-07T22:46:11.799Z,49.20
2023-02-07T23:01:12.005Z,37.10
2023-02-07T23:16:12.742Z,43.70
2023-02-07T23:31:13.459Z,51.10
2023-02-07T23:46:14.535Z,47.10
